sensor_id;sensor_type;location;lat;lon;timestamp;P1;durP1;ratioP1;P2;durP2;ratioP2
22336;SDS011;14992;50.844;4.418;2023-07-16T00:01:03;6.35;;;2.20;;
22336;SDS011;14992;50.844;4.418;2023-07-16T00:03:33;5.70;;;2.22;;
22336;SDS011;14992;50.844;4.418;2023-07-16T00:06:02;3.95;;;1.70;;
22336;SDS011;14992;50.844;4.418;2023-07-16T00:08:31;4.78;;;1.40;;
22336;SDS011;14992;50.844;4.418;2023-07-16T00:11:00;4.97;;;1.40;;
22336;SDS011;14992;50.844;4.418;2023-07-16T00:13:28;5.43;;;1.77;;
22336;SDS011;14992;50.844;4.418;2023-07-16T00:15:57;8.48;;;1.77;;
22336;SDS011;14992;50.844;4.418;2023-07-16T00:18:26;5.00;;;1.45;;
22336;SDS011;14992;50.844;4.418;2023-07-16T00:20:57;8.75;;;1.50;;
22336;SDS011;14992;50.844;4.418;2023-07-16T00:23:26;5.28;;;1.98;;
22336;SDS011;14992;50.844;4.418;2023-07-16T00:25:55;6.57;;;1.58;;
22336;SDS011;14992;50.844;4.418;2023-07-16T00:28:24;4.15;;;1.42;;
22336;SDS011;14992;50.844;4.418;2023-07-16T00:30:53;6.15;;;1.45;;
22336;SDS011;14992;50.844;4.418;2023-07-16T00:33:22;6.63;;;1.60;;
22336;SDS011;14992;50.844;4.418;2023-07-16T00:35:50;5.97;;;1.63;;
22336;SDS011;14992;50.844;4.418;2023-07-16T00:38:21;5.68;;;1.35;;
22336;SDS011;14992;50.844;4.418;2023-07-16T00:40:50;4.03;;;1.88;;
22336;SDS011;14992;50.844;4.418;2023-07-16T00:43:18;4.22;;;1.48;;
22336;SDS011;14992;50.844;4.418;2023-07-16T00:45:47;4.43;;;1.35;;
22336;SDS011;14992;50.844;4.418;2023-07-16T00:48:17;5.72;;;2.03;;
22336;SDS011;14992;50.844;4.418;2023-07-16T00:50:47;7.40;;;1.90;;
22336;SDS011;14992;50.844;4.418;2023-07-16T00:53:18;6.90;;;1.52;;
22336;SDS011;14992;50.844;4.418;2023-07-16T00:55:49;7.60;;;1.65;;
22336;SDS011;14992;50.844;4.418;2023-07-16T00:58:19;5.63;;;1.23;;
22336;SDS011;14992;50.844;4.418;2023-07-16T01:00:48;7.70;;;1.80;;
22336;SDS011;14992;50.844;4.418;2023-07-16T01:03:16;6.15;;;1.77;;
22336;SDS011;14992;50.844;4.418;2023-07-16T01:05:47;4.38;;;1.80;;
22336;SDS011;14992;50.844;4.418;2023-07-16T01:08:27;5.43;;;1.88;;
22336;SDS011;14992;50.844;4.418;2023-07-16T01:11:01;3.47;;;1.48;;
22336;SDS011;14992;50.844;4.418;2023-07-16T01:13:33;6.53;;;1.77;;
22336;SDS011;14992;50.844;4.418;2023-07-16T01:16:02;3.33;;;1.58;;
22336;SDS011;14992;50.844;4.418;2023-07-16T01:18:32;6.82;;;2.13;;
22336;SDS011;14992;50.844;4.418;2023-07-16T01:21:01;5.50;;;1.60;;
22336;SDS011;14992;50.844;4.418;2023-07-16T01:23:43;6.47;;;1.77;;
22336;SDS011;14992;50.844;4.418;2023-07-16T01:26:50;4.30;;;1.50;;
22336;SDS011;14992;50.844;4.418;2023-07-16T01:29:32;6.72;;;1.90;;
22336;SDS011;14992;50.844;4.418;2023-07-16T01:32:03;5.00;;;1.85;;
22336;SDS011;14992;50.844;4.418;2023-07-16T01:34:36;7.13;;;2.03;;
22336;SDS011;14992;50.844;4.418;2023-07-16T01:37:05;9.70;;;2.20;;
22336;SDS011;14992;50.844;4.418;2023-07-16T01:39:34;5.47;;;1.92;;
22336;SDS011;14992;50.844;4.418;2023-07-16T01:42:04;6.35;;;1.75;;
22336;SDS011;14992;50.844;4.418;2023-07-16T01:44:34;3.72;;;1.90;;
22336;SDS011;14992;50.844;4.418;2023-07-16T01:47:08;6.40;;;2.10;;
22336;SDS011;14992;50.844;4.418;2023-07-16T01:49:38;5.15;;;2.00;;
22336;SDS011;14992;50.844;4.418;2023-07-16T01:52:08;6.18;;;1.83;;
22336;SDS011;14992;50.844;4.418;2023-07-16T01:54:38;7.18;;;1.90;;
22336;SDS011;14992;50.844;4.418;2023-07-16T01:57:06;5.18;;;1.77;;
22336;SDS011;14992;50.844;4.418;2023-07-16T01:59:37;8.13;;;2.40;;
22336;SDS011;14992;50.844;4.418;2023-07-16T02:02:06;9.63;;;2.08;;
22336;SDS011;14992;50.844;4.418;2023-07-16T02:04:35;5.45;;;1.83;;
22336;SDS011;14992;50.844;4.418;2023-07-16T02:07:04;4.85;;;2.08;;
22336;SDS011;14992;50.844;4.418;2023-07-16T02:09:33;7.35;;;2.28;;
22336;SDS011;14992;50.844;4.418;2023-07-16T02:12:03;7.30;;;2.05;;
22336;SDS011;14992;50.844;4.418;2023-07-16T02:14:32;4.65;;;2.05;;
22336;SDS011;14992;50.844;4.418;2023-07-16T02:17:03;4.95;;;2.33;;
22336;SDS011;14992;50.844;4.418;2023-07-16T02:19:32;7.72;;;2.38;;
22336;SDS011;14992;50.844;4.418;2023-07-16T02:22:01;6.68;;;1.88;;
22336;SDS011;14992;50.844;4.418;2023-07-16T02:24:30;5.10;;;2.35;;
22336;SDS011;14992;50.844;4.418;2023-07-16T02:26:59;7.72;;;2.92;;
22336;SDS011;14992;50.844;4.418;2023-07-16T02:29:28;9.20;;;2.10;;
22336;SDS011;14992;50.844;4.418;2023-07-16T02:31:56;9.02;;;2.72;;
22336;SDS011;14992;50.844;4.418;2023-07-16T02:34:27;6.65;;;2.50;;
22336;SDS011;14992;50.844;4.418;2023-07-16T02:36:56;6.13;;;2.63;;
22336;SDS011;14992;50.844;4.418;2023-07-16T02:39:27;7.00;;;2.55;;
22336;SDS011;14992;50.844;4.418;2023-07-16T02:41:56;9.50;;;3.25;;
22336;SDS011;14992;50.844;4.418;2023-07-16T02:44:25;10.15;;;3.38;;
22336;SDS011;14992;50.844;4.418;2023-07-16T02:46:54;7.78;;;2.88;;
22336;SDS011;14992;50.844;4.418;2023-07-16T02:49:23;11.40;;;3.40;;
22336;SDS011;14992;50.844;4.418;2023-07-16T02:51:53;7.93;;;3.30;;
22336;SDS011;14992;50.844;4.418;2023-07-16T02:54:22;10.35;;;3.05;;
22336;SDS011;14992;50.844;4.418;2023-07-16T02:56:51;9.32;;;3.42;;
22336;SDS011;14992;50.844;4.418;2023-07-16T02:59:20;6.75;;;3.40;;
22336;SDS011;14992;50.844;4.418;2023-07-16T03:01:49;9.45;;;3.70;;
22336;SDS011;14992;50.844;4.418;2023-07-16T03:04:20;10.60;;;2.90;;
22336;SDS011;14992;50.844;4.418;2023-07-16T03:06:49;9.70;;;3.53;;
22336;SDS011;14992;50.844;4.418;2023-07-16T03:09:20;8.25;;;3.15;;
22336;SDS011;14992;50.844;4.418;2023-07-16T03:11:48;7.60;;;3.10;;
22336;SDS011;14992;50.844;4.418;2023-07-16T03:14:18;8.88;;;3.00;;
22336;SDS011;14992;50.844;4.418;2023-07-16T03:16:47;7.63;;;2.90;;
22336;SDS011;14992;50.844;4.418;2023-07-16T03:19:16;6.40;;;2.63;;
22336;SDS011;14992;50.844;4.418;2023-07-16T03:21:45;8.57;;;2.80;;
22336;SDS011;14992;50.844;4.418;2023-07-16T03:24:15;6.57;;;3.03;;
22336;SDS011;14992;50.844;4.418;2023-07-16T03:26:46;7.63;;;2.97;;
22336;SDS011;14992;50.844;4.418;2023-07-16T03:29:15;8.38;;;3.00;;
22336;SDS011;14992;50.844;4.418;2023-07-16T03:31:45;14.02;;;3.30;;
22336;SDS011;14992;50.844;4.418;2023-07-16T03:34:17;11.60;;;3.08;;
22336;SDS011;14992;50.844;4.418;2023-07-16T03:36:46;9.30;;;2.42;;
22336;SDS011;14992;50.844;4.418;2023-07-16T03:39:15;10.05;;;3.47;;
22336;SDS011;14992;50.844;4.418;2023-07-16T03:41:44;13.38;;;3.63;;
22336;SDS011;14992;50.844;4.418;2023-07-16T03:44:14;6.38;;;3.40;;
22336;SDS011;14992;50.844;4.418;2023-07-16T03:46:43;8.40;;;3.88;;
22336;SDS011;14992;50.844;4.418;2023-07-16T03:49:12;8.48;;;3.45;;
22336;SDS011;14992;50.844;4.418;2023-07-16T03:51:41;7.75;;;3.80;;
22336;SDS011;14992;50.844;4.418;2023-07-16T03:54:10;10.70;;;3.45;;
22336;SDS011;14992;50.844;4.418;2023-07-16T03:56:39;6.05;;;3.28;;
22336;SDS011;14992;50.844;4.418;2023-07-16T03:59:09;7.82;;;3.17;;
22336;SDS011;14992;50.844;4.418;2023-07-16T04:01:38;8.15;;;3.33;;
22336;SDS011;14992;50.844;4.418;2023-07-16T04:04:09;7.68;;;3.10;;
22336;SDS011;14992;50.844;4.418;2023-07-16T04:06:37;9.38;;;3.53;;
22336;SDS011;14992;50.844;4.418;2023-07-16T04:09:06;6.90;;;3.40;;
22336;SDS011;14992;50.844;4.418;2023-07-16T04:11:35;6.45;;;3.38;;
22336;SDS011;14992;50.844;4.418;2023-07-16T04:14:04;5.93;;;2.95;;
22336;SDS011;14992;50.844;4.418;2023-07-16T04:16:34;7.75;;;3.78;;
22336;SDS011;14992;50.844;4.418;2023-07-16T04:19:03;7.68;;;3.95;;
22336;SDS011;14992;50.844;4.418;2023-07-16T04:21:32;10.30;;;3.88;;
22336;SDS011;14992;50.844;4.418;2023-07-16T04:24:01;9.18;;;3.28;;
22336;SDS011;14992;50.844;4.418;2023-07-16T04:26:30;9.65;;;3.90;;
22336;SDS011;14992;50.844;4.418;2023-07-16T04:28:59;10.27;;;3.92;;
22336;SDS011;14992;50.844;4.418;2023-07-16T04:31:28;9.38;;;3.83;;
22336;SDS011;14992;50.844;4.418;2023-07-16T04:33:59;12.20;;;4.38;;
22336;SDS011;14992;50.844;4.418;2023-07-16T04:36:27;11.07;;;3.53;;
22336;SDS011;14992;50.844;4.418;2023-07-16T04:38:56;11.90;;;3.50;;
22336;SDS011;14992;50.844;4.418;2023-07-16T04:41:25;10.00;;;4.05;;
22336;SDS011;14992;50.844;4.418;2023-07-16T04:43:54;8.40;;;4.15;;
22336;SDS011;14992;50.844;4.418;2023-07-16T04:46:23;9.98;;;3.30;;
22336;SDS011;14992;50.844;4.418;2023-07-16T04:48:52;8.38;;;3.85;;
22336;SDS011;14992;50.844;4.418;2023-07-16T04:51:22;11.02;;;4.07;;
22336;SDS011;14992;50.844;4.418;2023-07-16T04:53:51;7.63;;;4.10;;
22336;SDS011;14992;50.844;4.418;2023-07-16T04:56:20;9.45;;;3.80;;
22336;SDS011;14992;50.844;4.418;2023-07-16T04:58:49;10.70;;;3.53;;
22336;SDS011;14992;50.844;4.418;2023-07-16T05:01:18;8.00;;;4.15;;
22336;SDS011;14992;50.844;4.418;2023-07-16T05:03:47;10.68;;;3.80;;
22336;SDS011;14992;50.844;4.418;2023-07-16T05:06:16;12.65;;;4.35;;
22336;SDS011;14992;50.844;4.418;2023-07-16T05:08:46;8.02;;;4.05;;
22336;SDS011;14992;50.844;4.418;2023-07-16T05:11:15;11.15;;;4.05;;
22336;SDS011;14992;50.844;4.418;2023-07-16T05:13:44;12.55;;;3.95;;
22336;SDS011;14992;50.844;4.418;2023-07-16T05:16:13;11.05;;;3.70;;
22336;SDS011;14992;50.844;4.418;2023-07-16T05:18:42;9.48;;;5.22;;
22336;SDS011;14992;50.844;4.418;2023-07-16T05:21:11;16.08;;;4.57;;
22336;SDS011;14992;50.844;4.418;2023-07-16T05:23:40;9.98;;;4.65;;
22336;SDS011;14992;50.844;4.418;2023-07-16T05:26:10;8.57;;;4.03;;
22336;SDS011;14992;50.844;4.418;2023-07-16T05:28:39;9.10;;;4.40;;
22336;SDS011;14992;50.844;4.418;2023-07-16T05:31:08;12.15;;;4.50;;
22336;SDS011;14992;50.844;4.418;2023-07-16T05:33:37;11.50;;;4.63;;
22336;SDS011;14992;50.844;4.418;2023-07-16T05:36:06;7.18;;;4.57;;
22336;SDS011;14992;50.844;4.418;2023-07-16T05:38:35;8.55;;;5.15;;
22336;SDS011;14992;50.844;4.418;2023-07-16T05:41:04;12.23;;;4.85;;
22336;SDS011;14992;50.844;4.418;2023-07-16T05:43:34;14.40;;;5.15;;
22336;SDS011;14992;50.844;4.418;2023-07-16T05:46:03;10.02;;;4.47;;
22336;SDS011;14992;50.844;4.418;2023-07-16T05:48:33;11.77;;;4.82;;
22336;SDS011;14992;50.844;4.418;2023-07-16T05:51:02;11.45;;;4.60;;
22336;SDS011;14992;50.844;4.418;2023-07-16T05:53:31;11.05;;;4.72;;
22336;SDS011;14992;50.844;4.418;2023-07-16T05:56:00;9.05;;;4.90;;
22336;SDS011;14992;50.844;4.418;2023-07-16T05:58:29;12.20;;;5.32;;
22336;SDS011;14992;50.844;4.418;2023-07-16T06:00:59;8.48;;;4.63;;
22336;SDS011;14992;50.844;4.418;2023-07-16T06:03:28;12.70;;;4.78;;
22336;SDS011;14992;50.844;4.418;2023-07-16T06:05:57;8.88;;;4.38;;
22336;SDS011;14992;50.844;4.418;2023-07-16T06:08:26;12.27;;;5.00;;
22336;SDS011;14992;50.844;4.418;2023-07-16T06:10:55;10.23;;;4.20;;
22336;SDS011;14992;50.844;4.418;2023-07-16T06:13:24;11.57;;;4.18;;
22336;SDS011;14992;50.844;4.418;2023-07-16T06:15:53;8.45;;;4.00;;
22336;SDS011;14992;50.844;4.418;2023-07-16T06:18:23;12.20;;;4.60;;
22336;SDS011;14992;50.844;4.418;2023-07-16T06:20:52;12.30;;;4.70;;
22336;SDS011;14992;50.844;4.418;2023-07-16T06:23:22;10.65;;;4.90;;
22336;SDS011;14992;50.844;4.418;2023-07-16T06:25:53;9.45;;;4.40;;
22336;SDS011;14992;50.844;4.418;2023-07-16T06:28:23;11.77;;;5.05;;
22336;SDS011;14992;50.844;4.418;2023-07-16T06:30:52;11.55;;;4.90;;
22336;SDS011;14992;50.844;4.418;2023-07-16T06:33:21;7.75;;;4.30;;
22336;SDS011;14992;50.844;4.418;2023-07-16T06:35:51;16.30;;;5.20;;
22336;SDS011;14992;50.844;4.418;2023-07-16T06:38:20;13.25;;;5.38;;
22336;SDS011;14992;50.844;4.418;2023-07-16T06:40:50;14.65;;;5.28;;
22336;SDS011;14992;50.844;4.418;2023-07-16T06:43:20;9.63;;;4.72;;
22336;SDS011;14992;50.844;4.418;2023-07-16T06:45:49;10.35;;;4.82;;
22336;SDS011;14992;50.844;4.418;2023-07-16T06:48:18;10.15;;;4.78;;
22336;SDS011;14992;50.844;4.418;2023-07-16T06:50:47;14.05;;;5.30;;
22336;SDS011;14992;50.844;4.418;2023-07-16T06:53:19;10.50;;;4.80;;
22336;SDS011;14992;50.844;4.418;2023-07-16T06:55:48;9.27;;;4.82;;
22336;SDS011;14992;50.844;4.418;2023-07-16T06:58:17;10.90;;;4.53;;
22336;SDS011;14992;50.844;4.418;2023-07-16T07:00:46;10.50;;;5.03;;
22336;SDS011;14992;50.844;4.418;2023-07-16T07:03:14;9.98;;;5.57;;
22336;SDS011;14992;50.844;4.418;2023-07-16T07:05:43;9.20;;;5.32;;
22336;SDS011;14992;50.844;4.418;2023-07-16T07:08:12;11.93;;;4.90;;
22336;SDS011;14992;50.844;4.418;2023-07-16T07:10:43;9.48;;;5.20;;
22336;SDS011;14992;50.844;4.418;2023-07-16T07:13:11;8.65;;;4.22;;
22336;SDS011;14992;50.844;4.418;2023-07-16T07:15:41;12.43;;;5.10;;
22336;SDS011;14992;50.844;4.418;2023-07-16T07:18:10;10.70;;;4.70;;
22336;SDS011;14992;50.844;4.418;2023-07-16T07:20:39;12.43;;;4.90;;
22336;SDS011;14992;50.844;4.418;2023-07-16T07:23:07;9.70;;;4.40;;
22336;SDS011;14992;50.844;4.418;2023-07-16T07:25:36;10.02;;;5.35;;
22336;SDS011;14992;50.844;4.418;2023-07-16T07:28:07;12.32;;;5.78;;
22336;SDS011;14992;50.844;4.418;2023-07-16T07:30:36;10.60;;;4.95;;
22336;SDS011;14992;50.844;4.418;2023-07-16T07:33:05;9.57;;;4.85;;
22336;SDS011;14992;50.844;4.418;2023-07-16T07:35:34;9.38;;;4.65;;
22336;SDS011;14992;50.844;4.418;2023-07-16T07:38:03;12.65;;;5.32;;
22336;SDS011;14992;50.844;4.418;2023-07-16T07:40:32;9.77;;;5.15;;
22336;SDS011;14992;50.844;4.418;2023-07-16T07:43:01;11.32;;;4.88;;
22336;SDS011;14992;50.844;4.418;2023-07-16T07:45:31;12.15;;;4.43;;
22336;SDS011;14992;50.844;4.418;2023-07-16T07:48:00;12.63;;;5.20;;
22336;SDS011;14992;50.844;4.418;2023-07-16T07:50:29;11.90;;;5.20;;
22336;SDS011;14992;50.844;4.418;2023-07-16T07:52:58;8.70;;;4.60;;
22336;SDS011;14992;50.844;4.418;2023-07-16T07:55:27;10.45;;;4.55;;
22336;SDS011;14992;50.844;4.418;2023-07-16T07:57:56;10.70;;;4.60;;
22336;SDS011;14992;50.844;4.418;2023-07-16T08:00:25;8.98;;;5.60;;
22336;SDS011;14992;50.844;4.418;2023-07-16T08:02:55;13.52;;;5.00;;
22336;SDS011;14992;50.844;4.418;2023-07-16T08:05:24;13.30;;;5.88;;
22336;SDS011;14992;50.844;4.418;2023-07-16T08:07:53;11.02;;;4.55;;
22336;SDS011;14992;50.844;4.418;2023-07-16T08:10:22;10.68;;;4.82;;
22336;SDS011;14992;50.844;4.418;2023-07-16T08:12:51;10.63;;;5.05;;
22336;SDS011;14992;50.844;4.418;2023-07-16T08:15:20;11.35;;;4.68;;
22336;SDS011;14992;50.844;4.418;2023-07-16T08:17:49;11.20;;;5.53;;
22336;SDS011;14992;50.844;4.418;2023-07-16T08:20:20;10.85;;;4.63;;
22336;SDS011;14992;50.844;4.418;2023-07-16T08:22:48;9.65;;;4.93;;
22336;SDS011;14992;50.844;4.418;2023-07-16T08:25:17;12.23;;;4.35;;
22336;SDS011;14992;50.844;4.418;2023-07-16T08:27:46;11.82;;;4.15;;
22336;SDS011;14992;50.844;4.418;2023-07-16T08:30:15;14.65;;;5.20;;
22336;SDS011;14992;50.844;4.418;2023-07-16T08:32:44;9.25;;;3.88;;
22336;SDS011;14992;50.844;4.418;2023-07-16T08:35:16;9.18;;;3.97;;
22336;SDS011;14992;50.844;4.418;2023-07-16T08:37:48;6.75;;;4.22;;
22336;SDS011;14992;50.844;4.418;2023-07-16T08:40:17;8.02;;;4.30;;
22336;SDS011;14992;50.844;4.418;2023-07-16T08:42:47;7.68;;;3.70;;
22336;SDS011;14992;50.844;4.418;2023-07-16T08:45:17;5.70;;;3.65;;
22336;SDS011;14992;50.844;4.418;2023-07-16T08:47:50;7.63;;;3.63;;
22336;SDS011;14992;50.844;4.418;2023-07-16T08:50:20;9.85;;;3.92;;
22336;SDS011;14992;50.844;4.418;2023-07-16T08:52:52;10.05;;;4.55;;
22336;SDS011;14992;50.844;4.418;2023-07-16T08:55:21;7.32;;;3.38;;
22336;SDS011;14992;50.844;4.418;2023-07-16T08:57:50;7.07;;;3.22;;
22336;SDS011;14992;50.844;4.418;2023-07-16T09:00:19;9.35;;;4.18;;
22336;SDS011;14992;50.844;4.418;2023-07-16T09:02:49;11.25;;;4.53;;
22336;SDS011;14992;50.844;4.418;2023-07-16T09:05:19;8.40;;;4.10;;
22336;SDS011;14992;50.844;4.418;2023-07-16T09:08:07;8.48;;;3.97;;
22336;SDS011;14992;50.844;4.418;2023-07-16T09:10:36;7.88;;;4.13;;
22336;SDS011;14992;50.844;4.418;2023-07-16T09:13:05;8.43;;;3.90;;
22336;SDS011;14992;50.844;4.418;2023-07-16T09:15:34;8.77;;;3.90;;
22336;SDS011;14992;50.844;4.418;2023-07-16T09:18:03;9.73;;;4.13;;
22336;SDS011;14992;50.844;4.418;2023-07-16T09:20:32;6.57;;;3.80;;
22336;SDS011;14992;50.844;4.418;2023-07-16T09:23:02;7.22;;;3.67;;
22336;SDS011;14992;50.844;4.418;2023-07-16T09:25:32;4.85;;;2.95;;
22336;SDS011;14992;50.844;4.418;2023-07-16T09:28:02;11.02;;;4.07;;
22336;SDS011;14992;50.844;4.418;2023-07-16T09:30:32;8.35;;;3.90;;
22336;SDS011;14992;50.844;4.418;2023-07-16T09:33:12;6.82;;;3.78;;
22336;SDS011;14992;50.844;4.418;2023-07-16T09:35:42;5.68;;;3.58;;
22336;SDS011;14992;50.844;4.418;2023-07-16T09:38:12;7.32;;;3.40;;
22336;SDS011;14992;50.844;4.418;2023-07-16T09:40:42;5.93;;;3.40;;
22336;SDS011;14992;50.844;4.418;2023-07-16T09:43:12;7.38;;;4.35;;
22336;SDS011;14992;50.844;4.418;2023-07-16T09:45:42;9.02;;;3.75;;
22336;SDS011;14992;50.844;4.418;2023-07-16T09:48:12;7.28;;;4.10;;
22336;SDS011;14992;50.844;4.418;2023-07-16T09:50:45;7.07;;;3.53;;
22336;SDS011;14992;50.844;4.418;2023-07-16T09:53:20;8.35;;;3.75;;
22336;SDS011;14992;50.844;4.418;2023-07-16T09:55:53;9.10;;;3.75;;
22336;SDS011;14992;50.844;4.418;2023-07-16T09:58:23;7.13;;;3.92;;
22336;SDS011;14992;50.844;4.418;2023-07-16T10:00:53;11.63;;;4.28;;
22336;SDS011;14992;50.844;4.418;2023-07-16T10:03:23;7.50;;;3.72;;
22336;SDS011;14992;50.844;4.418;2023-07-16T10:05:52;7.07;;;3.67;;
22336;SDS011;14992;50.844;4.418;2023-07-16T10:08:21;9.13;;;3.83;;
22336;SDS011;14992;50.844;4.418;2023-07-16T10:10:54;8.10;;;4.18;;
22336;SDS011;14992;50.844;4.418;2023-07-16T10:13:26;9.23;;;4.00;;
22336;SDS011;14992;50.844;4.418;2023-07-16T10:15:56;8.18;;;3.22;;
22336;SDS011;14992;50.844;4.418;2023-07-16T10:18:26;8.40;;;3.58;;
22336;SDS011;14992;50.844;4.418;2023-07-16T10:23:36;9.43;;;3.55;;
22336;SDS011;14992;50.844;4.418;2023-07-16T10:26:09;6.90;;;3.50;;
22336;SDS011;14992;50.844;4.418;2023-07-16T10:28:44;10.10;;;3.55;;
22336;SDS011;14992;50.844;4.418;2023-07-16T10:31:17;8.50;;;3.42;;
22336;SDS011;14992;50.844;4.418;2023-07-16T10:33:58;9.40;;;4.00;;
22336;SDS011;14992;50.844;4.418;2023-07-16T10:36:28;9.48;;;3.60;;
22336;SDS011;14992;50.844;4.418;2023-07-16T10:39:04;7.97;;;3.53;;
22336;SDS011;14992;50.844;4.418;2023-07-16T10:41:34;9.15;;;3.90;;
22336;SDS011;14992;50.844;4.418;2023-07-16T10:44:03;11.95;;;3.97;;
22336;SDS011;14992;50.844;4.418;2023-07-16T10:46:32;8.48;;;3.63;;
22336;SDS011;14992;50.844;4.418;2023-07-16T10:49:01;7.93;;;4.18;;
22336;SDS011;14992;50.844;4.418;2023-07-16T10:51:30;10.85;;;3.60;;
22336;SDS011;14992;50.844;4.418;2023-07-16T10:53:59;10.88;;;3.70;;
22336;SDS011;14992;50.844;4.418;2023-07-16T10:56:35;7.10;;;3.45;;
22336;SDS011;14992;50.844;4.418;2023-07-16T10:59:04;7.72;;;3.47;;
22336;SDS011;14992;50.844;4.418;2023-07-16T11:01:34;7.05;;;3.70;;
22336;SDS011;14992;50.844;4.418;2023-07-16T11:04:06;10.85;;;3.78;;
22336;SDS011;14992;50.844;4.418;2023-07-16T11:06:36;7.65;;;3.08;;
22336;SDS011;14992;50.844;4.418;2023-07-16T11:09:13;5.80;;;2.90;;
22336;SDS011;14992;50.844;4.418;2023-07-16T11:11:47;8.50;;;3.42;;
22336;SDS011;14992;50.844;4.418;2023-07-16T11:14:15;7.82;;;3.58;;
22336;SDS011;14992;50.844;4.418;2023-07-16T11:16:45;7.43;;;3.67;;
22336;SDS011;14992;50.844;4.418;2023-07-16T11:19:19;9.45;;;4.03;;
22336;SDS011;14992;50.844;4.418;2023-07-16T11:21:48;6.93;;;3.45;;
22336;SDS011;14992;50.844;4.418;2023-07-16T11:24:17;7.75;;;3.70;;
22336;SDS011;14992;50.844;4.418;2023-07-16T11:26:53;9.30;;;4.38;;
22336;SDS011;14992;50.844;4.418;2023-07-16T11:29:24;8.13;;;3.83;;
22336;SDS011;14992;50.844;4.418;2023-07-16T11:31:53;10.98;;;3.72;;
22336;SDS011;14992;50.844;4.418;2023-07-16T11:34:22;8.40;;;3.45;;
22336;SDS011;14992;50.844;4.418;2023-07-16T11:36:51;8.02;;;3.30;;
22336;SDS011;14992;50.844;4.418;2023-07-16T11:39:20;5.35;;;3.17;;
22336;SDS011;14992;50.844;4.418;2023-07-16T11:41:57;6.97;;;3.55;;
22336;SDS011;14992;50.844;4.418;2023-07-16T11:44:26;7.63;;;3.35;;
22336;SDS011;14992;50.844;4.418;2023-07-16T11:47:01;8.13;;;3.40;;
22336;SDS011;14992;50.844;4.418;2023-07-16T11:49:31;8.98;;;3.25;;
22336;SDS011;14992;50.844;4.418;2023-07-16T11:52:00;4.78;;;3.03;;
22336;SDS011;14992;50.844;4.418;2023-07-16T11:54:29;10.30;;;3.78;;
22336;SDS011;14992;50.844;4.418;2023-07-16T11:56:59;6.90;;;3.78;;
22336;SDS011;14992;50.844;4.418;2023-07-16T11:59:28;7.90;;;3.95;;
22336;SDS011;14992;50.844;4.418;2023-07-16T12:01:57;7.47;;;3.75;;
22336;SDS011;14992;50.844;4.418;2023-07-16T12:04:26;7.72;;;4.25;;
22336;SDS011;14992;50.844;4.418;2023-07-16T12:06:55;8.43;;;3.90;;
22336;SDS011;14992;50.844;4.418;2023-07-16T12:09:24;7.15;;;3.28;;
22336;SDS011;14992;50.844;4.418;2023-07-16T12:11:53;8.07;;;3.20;;
22336;SDS011;14992;50.844;4.418;2023-07-16T12:14:23;7.50;;;3.42;;
22336;SDS011;14992;50.844;4.418;2023-07-16T12:16:53;8.30;;;3.60;;
22336;SDS011;14992;50.844;4.418;2023-07-16T12:19:23;8.75;;;3.70;;
22336;SDS011;14992;50.844;4.418;2023-07-16T12:21:53;7.82;;;3.35;;
22336;SDS011;14992;50.844;4.418;2023-07-16T12:24:24;9.20;;;3.65;;
22336;SDS011;14992;50.844;4.418;2023-07-16T12:26:53;6.43;;;3.10;;
22336;SDS011;14992;50.844;4.418;2023-07-16T12:29:24;6.53;;;3.20;;
22336;SDS011;14992;50.844;4.418;2023-07-16T12:31:53;8.20;;;3.60;;
22336;SDS011;14992;50.844;4.418;2023-07-16T12:34:22;7.78;;;3.17;;
22336;SDS011;14992;50.844;4.418;2023-07-16T12:36:51;5.30;;;3.30;;
22336;SDS011;14992;50.844;4.418;2023-07-16T12:39:21;7.13;;;2.67;;
22336;SDS011;14992;50.844;4.418;2023-07-16T12:41:50;5.82;;;3.00;;
22336;SDS011;14992;50.844;4.418;2023-07-16T12:44:19;7.22;;;3.20;;
22336;SDS011;14992;50.844;4.418;2023-07-16T12:46:49;7.55;;;2.80;;
22336;SDS011;14992;50.844;4.418;2023-07-16T12:49:18;7.53;;;2.72;;
22336;SDS011;14992;50.844;4.418;2023-07-16T12:51:47;7.30;;;3.22;;
22336;SDS011;14992;50.844;4.418;2023-07-16T12:54:16;6.32;;;3.10;;
22336;SDS011;14992;50.844;4.418;2023-07-16T12:56:45;6.35;;;3.03;;
22336;SDS011;14992;50.844;4.418;2023-07-16T12:59:14;7.93;;;3.10;;
22336;SDS011;14992;50.844;4.418;2023-07-16T13:01:43;8.15;;;3.65;;
22336;SDS011;14992;50.844;4.418;2023-07-16T13:04:13;9.35;;;2.95;;
22336;SDS011;14992;50.844;4.418;2023-07-16T13:06:42;5.85;;;3.15;;
22336;SDS011;14992;50.844;4.418;2023-07-16T13:11:43;5.70;;;2.53;;
22336;SDS011;14992;50.844;4.418;2023-07-16T13:14:12;6.32;;;3.05;;
22336;SDS011;14992;50.844;4.418;2023-07-16T13:16:41;7.05;;;2.95;;
22336;SDS011;14992;50.844;4.418;2023-07-16T13:19:10;5.85;;;2.53;;
22336;SDS011;14992;50.844;4.418;2023-07-16T13:21:40;6.22;;;2.85;;
22336;SDS011;14992;50.844;4.418;2023-07-16T13:24:09;5.95;;;2.67;;
22336;SDS011;14992;50.844;4.418;2023-07-16T13:26:38;6.35;;;2.72;;
22336;SDS011;14992;50.844;4.418;2023-07-16T13:29:07;5.03;;;2.75;;
22336;SDS011;14992;50.844;4.418;2023-07-16T13:31:36;8.07;;;3.35;;
22336;SDS011;14992;50.844;4.418;2023-07-16T13:34:05;4.43;;;3.13;;
22336;SDS011;14992;50.844;4.418;2023-07-16T13:36:34;4.25;;;2.75;;
22336;SDS011;14992;50.844;4.418;2023-07-16T13:39:04;5.75;;;2.65;;
22336;SDS011;14992;50.844;4.418;2023-07-16T13:41:33;4.88;;;2.30;;
22336;SDS011;14992;50.844;4.418;2023-07-16T13:44:03;5.07;;;2.13;;
22336;SDS011;14992;50.844;4.418;2023-07-16T13:46:32;4.15;;;2.10;;
22336;SDS011;14992;50.844;4.418;2023-07-16T13:49:01;6.25;;;1.80;;
22336;SDS011;14992;50.844;4.418;2023-07-16T13:51:30;3.28;;;1.80;;
22336;SDS011;14992;50.844;4.418;2023-07-16T13:53:59;3.83;;;1.90;;
22336;SDS011;14992;50.844;4.418;2023-07-16T13:56:30;3.08;;;1.85;;
22336;SDS011;14992;50.844;4.418;2023-07-16T13:58:59;4.57;;;1.90;;
22336;SDS011;14992;50.844;4.418;2023-07-16T14:01:27;3.95;;;2.08;;
22336;SDS011;14992;50.844;4.418;2023-07-16T14:03:56;4.47;;;1.65;;
22336;SDS011;14992;50.844;4.418;2023-07-16T14:06:26;4.10;;;1.80;;
22336;SDS011;14992;50.844;4.418;2023-07-16T14:08:55;3.00;;;1.90;;
22336;SDS011;14992;50.844;4.418;2023-07-16T14:11:24;5.05;;;2.08;;
22336;SDS011;14992;50.844;4.418;2023-07-16T14:13:55;4.68;;;2.25;;
22336;SDS011;14992;50.844;4.418;2023-07-16T14:16:23;3.38;;;1.85;;
22336;SDS011;14992;50.844;4.418;2023-07-16T14:18:53;4.95;;;1.75;;
22336;SDS011;14992;50.844;4.418;2023-07-16T14:21:22;4.85;;;2.10;;
22336;SDS011;14992;50.844;4.418;2023-07-16T14:23:53;3.88;;;2.25;;
22336;SDS011;14992;50.844;4.418;2023-07-16T14:26:22;4.63;;;2.10;;
22336;SDS011;14992;50.844;4.418;2023-07-16T14:28:51;5.97;;;2.58;;
22336;SDS011;14992;50.844;4.418;2023-07-16T14:31:21;5.90;;;2.53;;
22336;SDS011;14992;50.844;4.418;2023-07-16T14:33:50;7.13;;;4.80;;
22336;SDS011;14992;50.844;4.418;2023-07-16T14:36:19;6.55;;;3.40;;
22336;SDS011;14992;50.844;4.418;2023-07-16T14:38:49;6.50;;;2.67;;
22336;SDS011;14992;50.844;4.418;2023-07-16T14:41:18;4.65;;;2.33;;
22336;SDS011;14992;50.844;4.418;2023-07-16T14:43:47;4.90;;;2.92;;
22336;SDS011;14992;50.844;4.418;2023-07-16T14:46:16;6.10;;;2.67;;
22336;SDS011;14992;50.844;4.418;2023-07-16T14:48:47;4.15;;;2.45;;
22336;SDS011;14992;50.844;4.418;2023-07-16T14:51:19;5.75;;;2.83;;
22336;SDS011;14992;50.844;4.418;2023-07-16T14:53:48;4.35;;;2.00;;
22336;SDS011;14992;50.844;4.418;2023-07-16T14:56:17;3.83;;;1.80;;
22336;SDS011;14992;50.844;4.418;2023-07-16T14:58:46;4.47;;;1.65;;
22336;SDS011;14992;50.844;4.418;2023-07-16T15:01:15;3.85;;;1.70;;
22336;SDS011;14992;50.844;4.418;2023-07-16T15:03:44;4.10;;;1.85;;
22336;SDS011;14992;50.844;4.418;2023-07-16T15:06:14;2.67;;;1.35;;